Troutdale, Virginia
Current Conditions -  °F | °C
As of 10:35 AM on Thursday 30 Oct 2014 (Local Time) from KMKJ Reporting Station
Broken Clouds Broken Clouds  
Wind Chill: 43°   Ceiling: 700
Heat Index: 45°   Visibility: 10mi
Dew Point: 40°   Wind: 5mph
Humidity: 82%   Direction: 260°W
Pressure: 30.13"   Gusts: NA
Location:  36.6915°N, 81.4378°W
Report Text: KMKJ 301435Z AUTO 26004KT 10SM BKN007 BKN012 07/05 A3013 RMK AO2 T00740045
Loading
Personal Weather Stations






























Interactive Weather Map
Tropical Storm Tracking
New forecast layout! Learn more

10-Day Weather Forecast

Advertisements
Track Severe Weather on mobile